Anshun, China
Current Conditions -  °F | °C
As of 5:00 PM on Thursday 27 Nov 2014 (Local Time) from ZUGY Reporting Station
Few Clouds Few Clouds  
Wind Chill: 68°   Ceiling: Unl
Heat Index: 68°   Visibility: 6mi
Dew Point: 50°   Wind: 9mph
Humidity: 52%   Direction: 190°S
Pressure: 29.85"   Gusts: NA
Location:  26.25°N, 105.93°E
Report Text: ZUGY 270900Z 19004MPS 9999 FEW040 20/10 Q1011 BECMG TL103036005MPS
Loading
Personal Weather Stations






























Interactive Weather Map New forecast layout! Learn more

10-Day Weather Forecast

Advertisements
Track Severe Weather on mobile